createdAt,value
2023-02-14T00:01:22.232Z,11.02
2023-02-14T00:05:26.389Z,10.13
2023-02-14T00:09:34.124Z,10.00
2023-02-14T00:13:37.162Z,9.27
2023-02-14T00:17:44.892Z,10.05
2023-02-14T00:21:49.987Z,9.65
2023-02-14T00:25:56.007Z,8.57
2023-02-14T00:30:03.423Z,8.25
2023-02-14T00:34:07.841Z,7.75
2023-02-14T00:38:15.217Z,8.00
2023-02-14T00:42:18.519Z,7.47
2023-02-14T00:46:23.535Z,7.25
2023-02-14T00:50:26.952Z,7.63
2023-02-14T00:54:31.292Z,7.75
2023-02-14T00:58:35.328Z,7.50
2023-02-14T01:02:38.445Z,7.60
2023-02-14T01:06:41.361Z,7.47
2023-02-14T01:10:45.768Z,7.40
2023-02-14T01:14:48.668Z,7.93
2023-02-14T01:18:55.426Z,7.93
2023-02-14T01:22:58.457Z,7.15
2023-02-14T01:27:02.636Z,6.78
2023-02-14T01:31:11.246Z,7.15
2023-02-14T01:35:14.439Z,6.93
2023-02-14T01:39:18.558Z,6.93
2023-02-14T01:43:22.769Z,7.22
2023-02-14T01:47:29.089Z,7.43
2023-02-14T01:51:33.740Z,7.90
2023-02-14T01:55:40.740Z,7.55
2023-02-14T01:59:50.950Z,7.97
2023-02-14T02:03:56.507Z,7.75
2023-02-14T02:08:01.645Z,7.50
2023-02-14T02:12:04.971Z,7.85
2023-02-14T02:16:36.272Z,8.38
2023-02-14T02:21:11.304Z,8.15
2023-02-14T02:25:33.803Z,8.95
2023-02-14T02:30:34.230Z,8.70
2023-02-14T02:35:13.130Z,8.38
2023-02-14T02:39:29.801Z,8.18
2023-02-14T02:43:44.505Z,7.45
2023-02-14T02:47:57.472Z,8.90
2023-02-14T02:52:21.742Z,8.35
2023-02-14T02:56:49.848Z,9.10
2023-02-14T03:00:56.057Z,9.07
2023-02-14T03:05:03.077Z,9.00
2023-02-14T03:09:30.109Z,8.68
2023-02-14T03:13:48.700Z,8.52
2023-02-14T03:18:03.210Z,9.10
2023-02-14T03:22:13.473Z,9.45
2023-02-14T03:26:19.470Z,10.02
2023-02-14T03:30:29.144Z,10.30
2023-02-14T03:34:38.770Z,9.48
2023-02-14T03:38:48.848Z,9.43
2023-02-14T03:42:56.564Z,8.13
2023-02-14T03:47:03.890Z,8.73
2023-02-14T03:51:11.182Z,9.13
2023-02-14T03:55:18.076Z,9.77
2023-02-14T03:59:26.046Z,9.57
2023-02-14T04:03:32.621Z,9.63
2023-02-14T04:07:46.111Z,9.40
2023-02-14T04:11:50.457Z,8.93
2023-02-14T04:15:54.836Z,9.40
2023-02-14T04:19:56.760Z,9.82
2023-02-14T04:23:59.748Z,9.05
2023-02-14T04:28:02.622Z,9.93
2023-02-14T04:32:08.083Z,9.10
2023-02-14T04:36:11.143Z,8.45
2023-02-14T04:40:17.097Z,8.50
2023-02-14T04:44:31.633Z,8.27
2023-02-14T04:48:36.249Z,9.40
2023-02-14T04:52:39.391Z,9.13
2023-02-14T04:56:42.375Z,8.98
2023-02-14T05:00:45.383Z,8.98
2023-02-14T05:04:49.987Z,8.43
2023-02-14T05:08:52.850Z,9.57
2023-02-14T05:12:55.886Z,9.30
2023-02-14T05:16:58.761Z,9.65
2023-02-14T05:21:03.073Z,8.63
2023-02-14T05:25:06.445Z,9.27
2023-02-14T05:29:22.080Z,9.50
2023-02-14T05:33:26.397Z,7.57
2023-02-14T05:37:30.612Z,7.40
2023-02-14T05:41:33.510Z,7.85
2023-02-14T05:45:36.823Z,7.90
2023-02-14T05:49:39.691Z,7.63
2023-02-14T05:53:43.883Z,6.97
2023-02-14T05:57:46.922Z,7.97
2023-02-14T06:01:52.835Z,9.20
2023-02-14T06:05:57.779Z,8.90
2023-02-14T06:10:02.000Z,8.00
2023-02-14T06:14:07.080Z,7.78
2023-02-14T06:18:09.998Z,7.32
2023-02-14T06:22:14.481Z,7.22
2023-02-14T06:26:31.777Z,7.45
2023-02-14T06:31:04.208Z,7.78
2023-02-14T06:35:16.964Z,7.40
2023-02-14T06:39:31.372Z,7.50
2023-02-14T06:43:44.639Z,7.10
2023-02-14T06:47:47.915Z,8.00
2023-02-14T06:51:51.403Z,9.05
2023-02-14T06:55:54.215Z,9.38
2023-02-14T06:59:58.463Z,9.25
2023-02-14T07:04:01.212Z,8.52
2023-02-14T07:08:04.198Z,8.27
2023-02-14T07:12:07.555Z,8.93
2023-02-14T07:16:11.955Z,8.25
2023-02-14T07:20:15.055Z,8.75
2023-02-14T07:24:17.798Z,8.80
2023-02-14T07:28:20.935Z,9.82
2023-02-14T07:32:25.233Z,9.63
2023-02-14T07:36:28.259Z,10.38
2023-02-14T07:40:31.073Z,11.95
2023-02-14T07:44:34.178Z,11.20
2023-02-14T07:48:39.207Z,11.40
2023-02-14T07:52:41.979Z,12.85
2023-02-14T07:56:44.758Z,12.88
2023-02-14T08:00:47.601Z,14.38
2023-02-14T08:04:51.758Z,13.25
2023-02-14T08:08:54.659Z,12.75
2023-02-14T08:13:00.185Z,13.65
2023-02-14T08:17:03.110Z,12.80
2023-02-14T08:21:09.605Z,12.32
2023-02-14T08:25:12.328Z,13.82
2023-02-14T08:29:16.832Z,12.65
2023-02-14T08:33:19.755Z,12.57
2023-02-14T08:37:23.798Z,12.60
2023-02-14T08:41:26.803Z,12.30
2023-02-14T08:45:29.624Z,10.98
2023-02-14T08:49:32.343Z,11.45
2023-02-14T08:53:36.920Z,10.70
2023-02-14T08:57:39.726Z,10.50
2023-02-14T09:01:42.460Z,10.93
2023-02-14T09:05:45.360Z,10.45
2023-02-14T09:09:49.401Z,10.43
2023-02-14T09:13:54.443Z,10.38
2023-02-14T09:17:57.403Z,10.07
2023-02-14T09:22:00.281Z,9.70
2023-02-14T09:26:07.438Z,9.27
2023-02-14T09:30:11.502Z,10.30
2023-02-14T09:34:14.288Z,9.38
2023-02-14T09:38:17.108Z,9.38
2023-02-14T09:42:46.737Z,8.60
2023-02-14T09:46:53.060Z,9.52
2023-02-14T09:50:59.216Z,8.60
2023-02-14T09:55:03.868Z,9.77
2023-02-14T09:59:13.657Z,8.85
2023-02-14T10:04:01.512Z,9.30
2023-02-14T10:08:17.273Z,8.60
2023-02-14T10:12:24.896Z,8.88
2023-02-14T10:16:33.350Z,8.52
2023-02-14T10:20:42.336Z,9.10
2023-02-14T10:24:50.405Z,9.02
2023-02-14T10:28:54.178Z,9.93
2023-02-14T10:33:05.226Z,9.88
2023-02-14T10:37:20.874Z,9.63
2023-02-14T10:41:36.621Z,8.40
2023-02-14T10:45:46.256Z,7.78
2023-02-14T10:49:57.463Z,5.63
2023-02-14T10:54:13.235Z,5.60
2023-02-14T10:58:19.472Z,5.60
2023-02-14T11:02:26.652Z,5.43
2023-02-14T11:06:30.732Z,5.32
2023-02-14T11:10:37.296Z,5.97
2023-02-14T11:14:41.594Z,5.78
2023-02-14T11:18:44.320Z,5.18
2023-02-14T11:22:51.612Z,5.00
2023-02-14T11:26:56.717Z,4.75
2023-02-14T11:31:00.042Z,4.30
2023-02-14T11:35:05.840Z,5.07
2023-02-14T11:39:22.124Z,5.50
2023-02-14T11:43:32.599Z,5.07
2023-02-14T11:47:41.353Z,4.65
2023-02-14T11:51:46.220Z,5.22
2023-02-14T11:55:55.928Z,4.80
2023-02-14T12:00:00.961Z,4.50
2023-02-14T12:04:08.684Z,5.10
2023-02-14T12:08:11.825Z,6.53
2023-02-14T12:12:22.063Z,6.50
2023-02-14T12:16:29.679Z,6.68
2023-02-14T12:20:41.800Z,6.72
2023-02-14T12:24:53.942Z,6.72
2023-02-14T12:29:02.652Z,6.40
2023-02-14T12:33:17.368Z,6.88
2023-02-14T12:37:41.739Z,7.20
2023-02-14T12:41:54.522Z,7.30
2023-02-14T12:46:13.952Z,8.00
2023-02-14T12:50:27.042Z,7.43
2023-02-14T12:54:44.124Z,7.70
2023-02-14T12:58:56.119Z,7.95
2023-02-14T13:03:28.217Z,7.25
2023-02-14T13:07:44.679Z,8.00
2023-02-14T13:11:56.594Z,7.25
2023-02-14T13:16:08.202Z,7.13
2023-02-14T13:20:33.227Z,7.40
2023-02-14T13:24:41.704Z,8.55
2023-02-14T13:28:50.007Z,8.02
2023-02-14T13:32:55.323Z,7.63
2023-02-14T13:37:01.470Z,8.55
2023-02-14T13:41:05.623Z,8.00
2023-02-14T13:46:05.043Z,7.13
2023-02-14T13:50:21.888Z,7.60
2023-02-14T13:54:43.127Z,6.85
2023-02-14T13:58:49.091Z,7.60
2023-02-14T14:02:52.991Z,7.15
2023-02-14T14:07:19.715Z,7.30
2023-02-14T14:12:00.635Z,7.32
2023-02-14T14:16:28.505Z,6.88
2023-02-14T14:20:43.120Z,7.50
2023-02-14T14:24:57.074Z,6.85
2023-02-14T14:29:00.031Z,7.25
2023-02-14T14:33:16.998Z,7.75
2023-02-14T14:37:23.003Z,7.35
2023-02-14T14:41:31.154Z,7.65
2023-02-14T14:45:35.820Z,7.38
2023-02-14T14:49:39.989Z,7.53
2023-02-14T14:53:47.089Z,7.85
2023-02-14T14:57:51.850Z,8.43
2023-02-14T15:01:55.298Z,8.30
2023-02-14T15:06:10.526Z,8.23
2023-02-14T15:10:23.884Z,9.05
2023-02-14T15:14:30.506Z,8.70
2023-02-14T15:18:33.523Z,8.45
2023-02-14T15:22:45.449Z,9.07
2023-02-14T15:26:51.992Z,9.27
2023-02-14T15:31:07.713Z,8.38
2023-02-14T15:35:19.892Z,9.07
2023-02-14T15:39:29.821Z,8.95
2023-02-14T15:43:39.610Z,9.55
2023-02-14T15:52:18.311Z,9.90
2023-02-14T15:56:26.041Z,9.70
2023-02-14T16:00:31.572Z,10.75
2023-02-14T16:04:36.680Z,10.90
2023-02-14T16:08:41.705Z,10.75
2023-02-14T16:17:50.034Z,10.45
2023-02-14T16:21:59.803Z,10.23
2023-02-14T16:26:02.716Z,10.43
2023-02-14T16:30:08.884Z,11.70
2023-02-14T16:34:18.537Z,10.48
2023-02-14T16:38:24.083Z,11.35
2023-02-14T16:42:26.991Z,11.07
2023-02-14T16:46:33.890Z,11.32
2023-02-14T16:50:45.271Z,11.57
2023-02-14T16:54:49.067Z,11.70
2023-02-14T16:58:52.302Z,12.20
2023-02-14T17:03:06.935Z,12.18
2023-02-14T17:07:18.182Z,12.30
2023-02-14T17:11:22.897Z,12.43
2023-02-14T17:15:34.201Z,12.57
2023-02-14T17:19:45.929Z,13.73
2023-02-14T17:23:53.738Z,15.57
2023-02-14T17:27:59.466Z,14.30
2023-02-14T17:32:07.629Z,13.55
2023-02-14T17:36:12.808Z,13.82
2023-02-14T17:40:17.133Z,14.18
2023-02-14T17:44:20.119Z,13.43
2023-02-14T17:48:25.705Z,14.18
2023-02-14T17:52:29.858Z,12.98
2023-02-14T17:56:34.065Z,14.60
2023-02-14T18:00:36.969Z,13.68
2023-02-14T18:04:40.105Z,12.52
2023-02-14T18:08:49.277Z,13.90
2023-02-14T18:12:53.641Z,12.77
2023-02-14T18:16:56.411Z,14.27
2023-02-14T18:21:00.977Z,15.40
2023-02-14T18:25:04.052Z,15.70
2023-02-14T18:29:10.697Z,15.30
2023-02-14T18:33:13.552Z,12.40
2023-02-14T18:37:17.006Z,12.40
2023-02-14T18:41:21.150Z,11.95
2023-02-14T18:45:26.090Z,10.95
2023-02-14T18:49:29.000Z,11.30
2023-02-14T18:53:31.800Z,11.48
2023-02-14T18:57:35.397Z,13.70
2023-02-14T19:01:42.753Z,10.95
2023-02-14T19:05:45.604Z,9.85
2023-02-14T19:09:48.487Z,11.20
2023-02-14T19:13:53.467Z,10.35
2023-02-14T19:17:57.786Z,9.50
2023-02-14T19:22:00.785Z,8.48
2023-02-14T19:26:10.469Z,8.40
2023-02-14T19:30:15.935Z,8.95
2023-02-14T19:34:22.181Z,8.00
2023-02-14T19:38:25.019Z,8.70
2023-02-14T19:42:27.927Z,7.93
2023-02-14T19:46:31.341Z,8.02
2023-02-14T19:50:36.014Z,8.38
2023-02-14T19:54:39.570Z,8.20
2023-02-14T19:58:42.524Z,8.85
2023-02-14T20:02:48.111Z,9.20
2023-02-14T20:06:55.094Z,8.50
2023-02-14T20:10:58.111Z,7.82
2023-02-14T20:15:01.133Z,7.80
2023-02-14T20:19:06.385Z,7.50
2023-02-14T20:23:10.561Z,7.90
2023-02-14T20:27:17.037Z,7.70
2023-02-14T20:31:20.261Z,7.07
2023-02-14T20:35:23.101Z,8.23
2023-02-14T20:39:32.435Z,8.98
2023-02-14T20:43:36.101Z,7.75
2023-02-14T20:47:38.946Z,7.07
2023-02-14T20:51:46.387Z,7.75
2023-02-14T20:55:52.846Z,7.97
2023-02-14T20:59:55.642Z,7.80
2023-02-14T21:03:58.805Z,8.50
2023-02-14T21:08:01.725Z,8.77
2023-02-14T21:12:06.749Z,9.48
2023-02-14T21:16:12.447Z,8.63
2023-02-14T21:20:16.378Z,9.18
2023-02-14T21:24:19.221Z,8.55
2023-02-14T21:28:24.552Z,9.00
2023-02-14T21:32:28.516Z,9.18
2023-02-14T21:36:35.430Z,9.80
2023-02-14T21:40:41.711Z,10.18
2023-02-14T21:45:04.023Z,9.60
2023-02-14T21:49:25.368Z,8.88
2023-02-14T21:53:28.333Z,11.57
2023-02-14T21:57:31.664Z,10.02
2023-02-14T22:01:40.117Z,9.30
2023-02-14T22:05:42.997Z,8.98
2023-02-14T22:09:45.876Z,8.82
2023-02-14T22:13:48.659Z,9.10
2023-02-14T22:17:52.758Z,8.32
2023-02-14T22:21:55.517Z,9.45
2023-02-14T22:26:07.510Z,8.88
2023-02-14T22:30:10.811Z,8.98
2023-02-14T22:34:17.682Z,9.25
2023-02-14T22:38:20.496Z,9.90
2023-02-14T22:42:23.222Z,9.52
2023-02-14T22:46:27.883Z,8.73
2023-02-14T22:50:33.882Z,9.43
2023-02-14T22:54:36.607Z,8.98
2023-02-14T22:58:39.392Z,8.82
2023-02-14T23:02:42.152Z,8.77
2023-02-14T23:06:46.417Z,9.43
2023-02-14T23:10:49.195Z,9.50
2023-02-14T23:15:09.860Z,8.88
2023-02-14T23:19:32.068Z,9.82
2023-02-14T23:23:38.854Z,9.45
2023-02-14T23:27:44.395Z,8.90
2023-02-14T23:31:47.270Z,9.68
2023-02-14T23:35:50.025Z,9.35
2023-02-14T23:39:54.098Z,9.57
2023-02-14T23:43:57.046Z,9.98
2023-02-14T23:48:03.469Z,10.00
2023-02-14T23:52:07.948Z,9.93
2023-02-14T23:56:11.969Z,9.68
